Time;durP1;ratioP1;P1;durP2;ratioP2;P2;SDS_P1;SDS_P2;PMS_P1;PMS_P2;Temp;Humidity;BMP_temperature;BMP_pressure;BME280_temperature;BME280_humidity;BME280_pressure;Samples;Min_cycle;Max_cycle;Signal;HPM_P1;HPM_P2
2023/07/12 00:01:23;;;;;;;;;5.25;4.00;;;;;25.90;52.99;100698.84;5020614;28;46037;-73
2023/07/12 00:03:51;;;;;;;;;4.75;4.50;;;;;25.91;52.67;100705.19;5040525;28;45669;-72
2023/07/12 00:06:19;;;;;;;;;4.00;4.00;;;;;25.95;52.97;100706.63;5039665;28;45437;-73
2023/07/12 00:08:50;;;;;;;;;4.25;4.25;;;;;25.99;53.02;100713.53;5040197;28;45392;-73
2023/07/12 00:11:20;;;;;;;;;4.25;2.75;;;;;26.01;52.61;100716.97;5033036;28;45424;-73
2023/07/12 00:13:47;;;;;;;;;3.00;3.00;;;;;25.97;53.03;100710.09;5038719;28;45585;-73
2023/07/12 00:16:19;;;;;;;;;2.50;2.50;;;;;26.27;53.03;100760.91;5022095;28;45470;-73
2023/07/12 00:18:46;;;;;;;;;3.00;3.00;;;;;26.21;52.48;100762.38;5039946;28;45492;-72
2023/07/12 00:21:24;;;;;;;;;2.00;2.00;;;;;26.15;53.25;100743.84;5040165;28;45503;-72
2023/07/12 00:23:54;;;;;;;;;4.00;3.00;;;;;26.28;53.08;100759.03;5027845;28;45436;-72
2023/07/12 00:26:34;;;;;;;;;1.75;1.75;;;;;26.13;53.02;100748.59;5040115;28;45354;-73
2023/07/12 00:29:02;;;;;;;;;3.25;2.75;;;;;26.11;52.77;100747.00;5027891;28;45592;-73
2023/07/12 00:31:27;;;;;;;;;3.00;3.00;;;;;26.03;52.89;100739.59;5039666;28;45284;-73
2023/07/12 00:33:56;;;;;;;;;5.75;5.00;;;;;26.07;53.29;100741.00;5038739;28;45319;-72
2023/07/12 00:36:24;;;;;;;;;2.25;2.25;;;;;25.88;53.30;100720.88;5039799;28;45399;-72
2023/07/12 00:38:53;;;;;;;;;5.75;2.50;;;;;26.00;53.23;100748.94;5031473;28;46297;-73
2023/07/12 00:41:44;;;;;;;;;2.00;2.00;;;;;26.16;53.14;100781.13;5021792;28;45353;-73
2023/07/12 00:44:18;;;;;;;;;4.00;4.00;;;;;25.80;53.48;100726.22;5039256;28;45501;-72
2023/07/12 00:46:49;;;;;;;;;2.25;2.25;;;;;26.08;53.44;100781.03;5039552;28;45384;-72
2023/07/12 00:49:15;;;;;;;;;1.75;1.25;;;;;25.82;53.78;100739.75;5037671;28;47149;-72
2023/07/12 00:51:59;;;;;;;;;5.00;4.00;;;;;25.96;54.12;100763.06;5039473;28;45502;-72
2023/07/12 00:54:26;;;;;;;;;2.00;2.00;;;;;25.94;53.79;100767.78;5039875;28;45377;-72
2023/07/12 00:56:52;;;;;;;;;3.00;3.00;;;;;25.55;54.09;100716.81;5037552;28;45906;-72
2023/07/12 00:59:20;;;;;;;;;2.00;2.00;;;;;25.96;53.49;100784.94;5039307;28;45529;-73
2023/07/12 01:01:48;;;;;;;;;5.00;2.75;;;;;25.78;53.96;100760.22;5033962;28;45665;-72
2023/07/12 01:04:21;;;;;;;;;2.00;2.00;;;;;25.82;53.64;100759.75;5016928;28;45340;-72
2023/07/12 01:06:49;;;;;;;;;1.00;1.00;;;;;25.74;53.79;100747.84;5039509;28;45300;-73
2023/07/12 01:09:19;;;;;;;;;2.00;2.00;;;;;25.63;53.99;100727.88;5021418;28;47459;-73
2023/07/12 01:11:45;;;;;;;;;3.50;3.50;;;;;25.59;54.37;100729.16;5035478;28;45605;-73
2023/07/12 01:14:13;;;;;;;;;2.75;2.75;;;;;25.66;53.98;100740.38;5038192;28;45364;-73
2023/07/12 01:16:42;;;;;;;;;1.75;1.75;;;;;25.84;54.02;100781.47;5039419;28;45316;-73
2023/07/12 01:19:07;;;;;;;;;1.75;1.75;;;;;25.52;54.25;100731.63;5039121;28;45570;-73
2023/07/12 01:21:38;;;;;;;;;1.00;1.00;;;;;25.74;53.48;100778.75;5039448;28;45438;-73
2023/07/12 01:24:04;;;;;;;;;2.75;2.00;;;;;25.68;54.01;100766.56;5038538;28;45331;-72
2023/07/12 01:26:37;;;;;;;;;1.75;1.75;;;;;25.62;53.72;100777.22;5019812;28;45498;-73
2023/07/12 01:29:05;;;;;;;;;1.00;1.00;;;;;25.56;53.99;100777.78;5037744;28;47022;-73
2023/07/12 01:31:32;;;;;;;;;2.00;2.00;;;;;25.57;54.08;100785.00;5038779;28;45466;-72
2023/07/12 01:33:58;;;;;;;;;1.00;1.00;;;;;25.38;53.64;100759.44;5039058;28;45458;-72
2023/07/12 01:36:26;;;;;;;;;2.50;2.50;;;;;25.20;53.50;100733.81;5026163;28;45391;-72
2023/07/12 01:38:53;;;;;;;;;0.25;0.25;;;;;25.29;53.48;100757.56;5031186;28;46733;-72
2023/07/12 01:41:19;;;;;;;;;1.75;1.75;;;;;25.24;53.43;100755.25;5039016;28;45411;-73
2023/07/12 01:43:48;;;;;;;;;2.75;1.50;;;;;25.12;53.30;100738.13;5038272;28;45704;-73
2023/07/12 01:46:14;;;;;;;;;1.00;1.00;;;;;25.44;53.47;100796.22;5038618;28;45567;-72
2023/07/12 01:48:40;;;;;;;;;2.75;1.00;;;;;25.15;53.15;100761.56;5038942;28;45510;-73
2023/07/12 01:51:06;;;;;;;;;1.00;1.00;;;;;25.05;53.42;100742.44;5039047;28;45683;-73
2023/07/12 01:53:33;;;;;;;;;1.00;1.00;;;;;25.18;53.10;100780.41;5017984;28;45373;-73
2023/07/12 01:56:00;;;;;;;;;1.00;1.00;;;;;25.33;52.83;100802.72;5030343;28;46086;-73
2023/07/12 01:58:26;;;;;;;;;0.50;0.50;;;;;25.29;53.19;100807.59;5020842;28;47105;-72
2023/07/12 02:00:52;;;;;;;;;0.75;0.25;;;;;24.94;52.95;100750.75;5033129;28;45432;-72
2023/07/12 02:03:18;;;;;;;;;1.00;0.75;;;;;25.05;53.36;100779.81;5027060;28;45431;-72
2023/07/12 02:05:45;;;;;;;;;1.75;1.75;;;;;24.88;52.78;100754.94;5027771;28;45574;-73
2023/07/12 02:08:11;;;;;;;;;0.00;0.00;;;;;24.83;52.73;100750.94;5037219;28;47576;-73
2023/07/12 02:10:37;;;;;;;;;0.25;0.25;;;;;24.81;52.69;100744.72;5017912;28;45329;-73
2023/07/12 02:13:03;;;;;;;;;0.00;0.00;;;;;25.03;53.42;100788.16;5038841;28;45257;-73
2023/07/12 02:24:21;;;;;;;;;0.25;0.00;;;;;24.73;53.05;100802.78;5037944;28;45464;-73
2023/07/12 02:26:46;;;;;;;;;2.00;0.00;;;;;24.71;53.60;100808.38;5016090;28;45601;-73
2023/07/12 02:29:14;;;;;;;;;0.00;0.00;;;;;24.67;53.41;100812.34;5030149;28;45457;-73
2023/07/12 02:31:42;;;;;;;;;0.00;0.00;;;;;24.77;53.06;100840.56;5036807;28;45708;-72
2023/07/12 02:34:08;;;;;;;;;0.50;0.50;;;;;24.72;53.02;100829.19;5038416;28;45501;-73
2023/07/12 02:36:33;;;;;;;;;0.00;0.00;;;;;24.26;53.34;100765.13;5039491;28;45400;-72
2023/07/12 02:39:01;;;;;;;;;0.00;0.00;;;;;24.31;53.59;100786.53;5024738;28;47115;-72
2023/07/12 02:41:29;;;;;;;;;0.00;0.00;;;;;24.41;53.58;100799.19;5041907;28;45341;-72
2023/07/12 02:43:54;;;;;;;;;0.00;0.00;;;;;24.35;53.90;100807.91;5041727;28;45340;-73
2023/07/12 02:46:19;;;;;;;;;1.75;0.00;;;;;24.50;53.17;100834.84;5040856;28;45289;-73
2023/07/12 02:48:48;;;;;;;;;0.50;0.50;;;;;24.29;53.06;100816.66;5032067;28;45428;-72
2023/07/12 02:51:13;;;;;;;;;0.00;0.00;;;;;24.46;53.57;100847.91;5037038;28;45383;-73
2023/07/12 02:53:39;;;;;;;;;0.00;0.00;;;;;24.28;53.31;100820.38;5041861;28;45761;-72
2023/07/12 02:56:04;;;;;;;;;0.00;0.00;;;;;24.25;53.62;100822.53;5040787;28;45297;-72
2023/07/12 02:58:32;;;;;;;;;0.00;0.00;;;;;24.33;53.72;100841.81;5041367;28;45383;-72
2023/07/12 03:00:58;;;;;;;;;0.00;0.00;;;;;24.05;53.78;100808.78;5039584;28;45457;-72
2023/07/12 03:03:23;;;;;;;;;0.00;0.00;;;;;24.07;53.39;100827.75;5041326;28;45367;-73
2023/07/12 03:05:49;;;;;;;;;0.00;0.00;;;;;24.03;53.71;100828.00;5029336;28;45570;-73
2023/07/12 03:08:14;;;;;;;;;0.75;0.00;;;;;23.89;54.06;100831.09;5041340;28;46538;-72
2023/07/12 03:10:40;;;;;;;;;0.00;0.00;;;;;23.88;54.44;100839.41;5041117;28;45393;-72
2023/07/12 03:13:05;;;;;;;;;0.00;0.00;;;;;23.67;54.60;100810.25;5041403;28;45433;-73
2023/07/12 03:15:31;;;;;;;;;0.00;0.00;;;;;23.85;54.12;100849.56;5022711;28;45450;-73
2023/07/12 03:17:58;;;;;;;;;0.00;0.00;;;;;23.69;54.20;100827.34;5041141;28;46218;-73
2023/07/12 03:20:23;;;;;;;;;0.00;0.00;;;;;23.93;54.45;100875.31;5029351;28;45387;-73
2023/07/12 03:22:49;;;;;;;;;0.00;0.00;;;;;23.84;54.81;100849.72;5039532;28;45797;-72
2023/07/12 03:25:17;;;;;;;;;0.00;0.00;;;;;23.85;54.24;100874.09;5040490;28;45494;-73
2023/07/12 03:27:51;;;;;;;;;0.00;0.00;;;;;23.89;54.82;100885.63;5040792;28;45319;-72
2023/07/12 03:30:16;;;;;;;;;0.00;0.00;;;;;23.54;54.66;100825.94;5041026;28;45276;-72
2023/07/12 03:32:42;;;;;;;;;1.00;0.00;;;;;23.66;55.02;100853.00;5040951;28;45387;-72
2023/07/12 03:35:10;;;;;;;;;0.00;0.00;;;;;23.68;54.79;100861.88;5041113;28;45466;-73
2023/07/12 03:37:36;;;;;;;;;0.00;0.00;;;;;23.73;54.75;100866.09;5028775;28;46257;-73
2023/07/12 03:40:04;;;;;;;;;0.00;0.00;;;;;23.63;54.76;100858.69;5022885;28;45690;-72
2023/07/12 03:42:29;;;;;;;;;0.00;0.00;;;;;23.47;54.58;100831.91;5041143;28;45390;-72
2023/07/12 03:44:55;;;;;;;;;0.00;0.00;;;;;23.64;54.89;100856.88;5027416;28;45646;-73
2023/07/12 03:47:23;;;;;;;;;0.00;0.00;;;;;23.66;54.49;100865.75;5040809;28;46358;-72
2023/07/12 03:49:49;;;;;;;;;0.25;0.00;;;;;23.55;54.74;100857.63;5040213;28;45321;-72
2023/07/12 03:52:14;;;;;;;;;0.25;0.25;;;;;23.55;54.30;100861.22;5040984;28;45387;-73
2023/07/12 03:54:41;;;;;;;;;0.00;0.00;;;;;23.55;54.69;100855.75;5040763;28;45305;-73
2023/07/12 03:57:07;;;;;;;;;0.00;0.00;;;;;23.51;54.33;100851.59;5038353;28;46124;-72
2023/07/12 03:59:32;;;;;;;;;0.00;0.00;;;;;23.45;53.75;100838.47;5039631;28;45532;-73
2023/07/12 04:01:58;;;;;;;;;1.75;0.00;;;;;23.39;53.49;100844.44;5034092;28;45423;-73
2023/07/12 04:04:25;;;;;;;;;0.25;0.25;;;;;23.37;53.38;100847.31;5011676;28;45638;-73
2023/07/12 04:06:53;;;;;;;;;1.00;1.00;;;;;23.29;53.46;100856.13;5040025;28;45385;-73
2023/07/12 04:09:21;;;;;;;;;1.00;1.00;;;;;23.30;52.84;100859.72;5040567;28;45249;-73
2023/07/12 04:11:56;;;;;;;;;0.75;0.75;;;;;23.33;52.56;100878.53;5034504;28;45453;-72
2023/07/12 04:14:24;;;;;;;;;2.00;0.75;;;;;23.25;52.60;100881.03;5022366;28;45408;-72
2023/07/12 04:16:50;;;;;;;;;1.00;1.00;;;;;23.05;52.14;100852.69;5040087;28;45382;-73
2023/07/12 04:19:17;;;;;;;;;1.00;0.00;;;;;23.17;52.49;100883.53;5037953;28;45388;-72
2023/07/12 04:21:45;;;;;;;;;3.00;1.00;;;;;23.11;52.71;100882.19;5022026;28;45293;-72
2023/07/12 04:24:13;;;;;;;;;1.50;1.00;;;;;23.06;53.12;100876.22;5040071;28;45546;-73
2023/07/12 04:26:43;;;;;;;;;1.00;1.00;;;;;23.19;52.79;100909.66;5039474;28;45457;-72
2023/07/12 04:29:13;;;;;;;;;0.50;0.50;;;;;23.10;53.00;100899.50;5039972;28;45269;-72
2023/07/12 04:31:40;;;;;;;;;0.50;0.50;;;;;22.91;52.91;100884.66;5021905;28;45407;-73
2023/07/12 04:34:05;;;;;;;;;2.00;1.00;;;;;22.82;52.63;100881.81;5039975;28;45437;-73
2023/07/12 04:36:31;;;;;;;;;1.00;1.00;;;;;22.87;52.38;100890.47;5040133;28;45313;-72
2023/07/12 04:39:12;;;;;;;;;0.25;0.25;;;;;22.99;52.35;100918.53;5027019;28;45253;-72
2023/07/12 04:41:40;;;;;;;;;2.00;0.00;;;;;22.98;52.32;100930.44;5027835;28;46225;-73
2023/07/12 04:44:05;;;;;;;;;1.00;1.00;;;;;23.06;52.47;100947.91;5038587;28;45997;-72
2023/07/12 04:46:35;;;;;;;;;2.75;1.00;;;;;22.84;52.73;100926.13;5039915;28;46506;-72
2023/07/12 04:49:01;;;;;;;;;1.25;0.25;;;;;22.86;52.83;100946.78;5038417;28;45427;-72
2023/07/12 04:51:26;;;;;;;;;1.25;1.25;;;;;22.70;52.26;100916.34;5021999;28;45634;-73
2023/07/12 04:53:52;;;;;;;;;1.50;0.00;;;;;22.55;52.59;100907.56;5039700;28;45434;-72
2023/07/12 04:56:20;;;;;;;;;1.00;1.00;;;;;22.43;52.80;100903.13;5037514;28;47926;-73
2023/07/12 04:58:45;;;;;;;;;0.50;0.50;;;;;22.41;53.18;100915.97;5037552;28;45576;-73
2023/07/12 05:01:13;;;;;;;;;1.75;1.00;;;;;22.61;53.58;100956.03;5038265;28;45350;-73
2023/07/12 05:03:44;;;;;;;;;1.50;0.50;;;;;22.36;53.46;100936.22;5025103;28;45442;-72
2023/07/12 05:06:13;;;;;;;;;3.00;1.50;;;;;22.37;53.67;100950.72;5033877;28;45705;-72
2023/07/12 05:08:41;;;;;;;;;2.00;1.75;;;;;22.52;53.43;100979.41;5039720;28;45253;-73
2023/07/12 05:11:17;;;;;;;;;3.00;1.75;;;;;22.44;53.27;100968.28;5035273;28;46363;-73
2023/07/12 05:13:45;;;;;;;;;1.75;1.00;;;;;22.30;53.72;100949.44;5039401;28;45509;-72
2023/07/12 05:16:13;;;;;;;;;2.00;1.00;;;;;22.31;53.14;100945.75;5035144;28;46120;-73
2023/07/12 05:18:38;;;;;;;;;1.25;1.00;;;;;22.43;53.39;100987.44;5028894;28;45438;-73
2023/07/12 05:21:04;;;;;;;;;0.75;0.75;;;;;22.21;53.66;100954.56;5038302;28;45411;-72
2023/07/12 05:23:32;;;;;;;;;1.00;1.00;;;;;22.30;54.03;100971.19;5039444;28;45295;-72
2023/07/12 05:25:58;;;;;;;;;2.25;1.25;;;;;22.07;53.72;100930.34;5020442;28;46913;-72
2023/07/12 05:28:23;;;;;;;;;2.00;0.25;;;;;22.11;54.01;100934.53;5039275;28;45453;-73
2023/07/12 05:30:49;;;;;;;;;2.00;1.00;;;;;22.19;54.10;100961.13;5034264;28;45421;-73
2023/07/12 05:33:15;;;;;;;;;2.00;2.00;;;;;22.10;54.02;100940.97;5029760;28;45384;-72
2023/07/12 05:35:49;;;;;;;;;1.00;1.00;;;;;22.13;53.98;100954.31;5038983;28;45421;-72
2023/07/12 05:38:15;;;;;;;;;0.75;0.75;;;;;22.46;53.84;101009.81;5021121;28;45725;-73
2023/07/12 05:40:40;;;;;;;;;2.00;2.00;;;;;22.22;53.94;100974.50;5038977;28;45309;-72
2023/07/12 05:43:06;;;;;;;;;3.00;1.75;;;;;22.12;53.77;100957.16;5017763;28;45331;-73
2023/07/12 05:45:31;;;;;;;;;1.75;1.50;;;;;22.25;53.71;100995.13;5019364;28;46154;-73
2023/07/12 05:48:00;;;;;;;;;2.00;2.00;;;;;22.08;53.24;100972.81;5014326;28;45316;-73
2023/07/12 05:50:26;;;;;;;;;1.50;1.50;;;;;22.08;53.80;100972.81;5032756;28;45483;-72
2023/07/12 05:52:51;;;;;;;;;0.00;0.00;;;;;21.98;53.29;100952.78;5020885;28;45581;-72
2023/07/12 05:55:25;;;;;;;;;1.25;1.25;;;;;22.01;53.21;100964.28;5037886;28;46458;-72
2023/07/12 05:58:14;;;;;;;;;2.00;1.00;;;;;21.96;53.01;100957.47;5019428;28;45576;-77
2023/07/12 06:02:12;;;;;;;;;;;;;;;;;;;;;
2023/07/12 06:05:26;;;;;;;;;;;;;;;;;;;;;
2023/07/12 06:08:02;;;;;;;;;2.25;2.25;;;;;22.09;53.86;100985.44;4899846;28;75205;-72
2023/07/12 06:10:32;;;;;;;;;1.75;1.75;;;;;22.10;53.58;100976.31;4937996;28;45497;-73
2023/07/12 06:13:10;;;;;;;;;4.00;1.00;;;;;22.12;53.48;100993.38;5006889;28;45676;-75
2023/07/12 06:15:51;;;;;;;;;;;;;;;;;;;;;
2023/07/12 06:18:50;;;;;;;;;;;;;;;;;;;;;
2023/07/12 06:24:50;;;;;;;;;;;;;;;;;;;;;
2023/07/12 06:27:27;;;;;;;;;1.75;1.50;;;;;22.41;53.17;101054.69;5036501;28;72779;-74
2023/07/12 06:30:48;;;;;;;;;2.00;1.25;;;;;22.10;53.05;101003.50;5024066;28;45518;-74
2023/07/12 06:33:45;;;;;;;;;;;;;;;;;;;;;
2023/07/12 06:44:07;;;;;;;;;2.00;2.00;;;;;22.15;53.18;101017.59;5018573;28;46399;-74
2023/07/12 06:46:08;;;;;;;;;2.50;2.00;;;;;22.12;52.73;101027.81;5014378;28;45513;-72
2023/07/12 06:48:33;;;;;;;;;1.25;1.00;;;;;22.29;52.41;101061.94;5042200;28;45429;-73
2023/07/12 06:50:59;;;;;;;;;1.00;1.00;;;;;22.16;52.45;101034.78;5037363;28;45420;-72
2023/07/12 06:53:26;;;;;;;;;2.00;1.00;;;;;22.21;52.64;101046.16;5035169;28;47003;-73
2023/07/12 06:55:52;;;;;;;;;2.00;0.75;;;;;22.05;52.38;101023.84;5035250;28;45616;-73
2023/07/12 06:58:17;;;;;;;;;1.25;1.00;;;;;22.18;52.62;101046.41;5037367;28;45312;-73
2023/07/12 07:00:43;;;;;;;;;1.25;0.00;;;;;21.99;52.43;101023.34;5017703;28;46155;-77
2023/07/12 07:03:11;;;;;;;;;2.75;1.50;;;;;22.14;52.07;101047.63;5029664;28;45631;-78
2023/07/12 07:05:41;;;;;;;;;1.00;1.00;;;;;22.32;52.19;101083.44;5021712;28;45605;-77
2023/07/12 07:08:07;;;;;;;;;1.75;1.75;;;;;22.33;52.04;101083.31;5014205;28;45562;-77
2023/07/12 07:10:33;;;;;;;;;1.50;1.50;;;;;22.33;51.60;101086.03;5029780;28;45565;-78
2023/07/12 07:12:58;;;;;;;;;1.25;1.25;;;;;22.22;51.74;101058.78;5022635;28;46253;-77
2023/07/12 07:15:24;;;;;;;;;1.50;1.00;;;;;22.39;51.54;101079.28;5034695;28;45901;-76
2023/07/12 07:17:49;;;;;;;;;1.75;1.75;;;;;22.21;51.80;101038.00;5031043;28;45446;-78
2023/07/12 07:20:15;;;;;;;;;1.50;1.50;;;;;22.20;51.53;101049.84;5024180;28;45565;-77
2023/07/12 07:22:40;;;;;;;;;4.75;2.00;;;;;22.25;51.53;101050.38;5019245;28;45968;-73
2023/07/12 07:25:06;;;;;;;;;1.25;1.25;;;;;22.40;51.91;101078.28;5020158;28;46986;-75
2023/07/12 07:27:31;;;;;;;;;2.50;2.00;;;;;22.30;51.53;101060.94;5016553;28;46018;-73
2023/07/12 07:29:56;;;;;;;;;2.00;2.00;;;;;22.49;51.51;101084.88;5028825;28;45305;-73
2023/07/12 07:32:22;;;;;;;;;1.00;1.00;;;;;22.31;51.29;101052.66;5039431;28;45418;-73
2023/07/12 07:34:47;;;;;;;;;1.75;1.00;;;;;22.54;51.18;101094.41;5032306;28;45628;-73
2023/07/12 07:37:13;;;;;;;;;1.00;1.00;;;;;22.54;50.86;101093.53;5036421;28;45412;-73
2023/07/12 07:39:38;;;;;;;;;1.00;1.00;;;;;22.40;51.54;101061.94;5038041;28;45521;-73
2023/07/12 07:42:04;;;;;;;;;2.75;1.75;;;;;22.41;51.91;101069.13;5025621;28;45448;-74
2023/07/12 07:44:29;;;;;;;;;1.00;1.00;;;;;22.35;51.06;101050.56;5038207;28;45477;-73
2023/07/12 07:46:54;;;;;;;;;2.25;1.25;;;;;22.26;51.50;101035.78;5019596;28;45489;-73
2023/07/12 07:49:20;;;;;;;;;3.50;0.00;;;;;22.54;51.37;101072.63;5020738;28;45673;-72
2023/07/12 07:51:45;;;;;;;;;3.00;1.00;;;;;22.42;51.42;101051.84;5029516;28;46605;-75
2023/07/12 07:54:10;;;;;;;;;3.50;2.50;;;;;22.55;51.09;101082.53;5039108;28;45376;-72
2023/07/12 07:56:36;;;;;;;;;1.00;1.00;;;;;22.50;51.01;101076.59;5021485;28;45689;-68
2023/07/12 07:59:01;;;;;;;;;2.00;1.00;;;;;22.59;51.10;101085.91;5035895;28;45405;-71
2023/07/12 08:01:26;;;;;;;;;2.00;1.00;;;;;22.63;51.14;101086.50;5038046;28;45439;-69
2023/07/12 08:03:52;;;;;;;;;2.00;1.00;;;;;22.63;50.40;101081.94;5037888;28;45475;-70
2023/07/12 08:06:17;;;;;;;;;2.75;1.00;;;;;22.47;50.98;101046.03;5022124;28;45394;-71
2023/07/12 08:08:43;;;;;;;;;1.00;1.00;;;;;22.63;50.68;101079.22;5037246;28;45549;-71
2023/07/12 08:11:08;;;;;;;;;2.00;2.00;;;;;22.58;50.67;101078.72;5038778;28;45504;-70
2023/07/12 08:13:34;;;;;;;;;1.00;1.00;;;;;22.74;50.02;101094.72;5026957;28;45701;-71
2023/07/12 08:15:59;;;;;;;;;2.00;1.00;;;;;22.76;50.24;101098.19;5036125;28;45822;-71
2023/07/12 08:18:24;;;;;;;;;2.00;1.25;;;;;22.76;50.03;101096.31;5029491;28;45481;-71
2023/07/12 08:20:56;;;;;;;;;1.25;1.00;;;;;22.77;50.41;101089.03;5038760;28;46432;-71
2023/07/12 08:23:22;;;;;;;;;1.00;1.00;;;;;22.77;50.21;101089.03;5034953;28;45536;-71
2023/07/12 08:25:52;;;;;;;;;0.75;0.75;;;;;22.78;49.91;101079.88;5038996;28;45483;-71
2023/07/12 08:28:17;;;;;;;;;0.50;0.50;;;;;22.86;49.53;101107.34;5034649;28;45926;-71
2023/07/12 08:30:43;;;;;;;;;1.00;1.00;;;;;22.88;49.95;101099.06;5036375;28;45996;-71
2023/07/12 08:33:09;;;;;;;;;1.00;1.00;;;;;22.90;49.49;101100.69;5019558;28;45848;-71
2023/07/12 08:35:34;;;;;;;;;1.25;1.25;;;;;22.85;49.19;101097.44;5038772;28;45504;-71
2023/07/12 08:38:00;;;;;;;;;2.00;1.00;;;;;22.86;49.16;101090.16;5019842;28;47577;-71
2023/07/12 08:40:27;;;;;;;;;2.25;1.00;;;;;22.90;49.02;101097.09;5037826;28;46007;-71
2023/07/12 08:42:52;;;;;;;;;1.00;1.00;;;;;22.91;49.38;101102.41;5032250;28;45704;-71
2023/07/12 08:45:29;;;;;;;;;1.00;1.00;;;;;22.93;49.71;101094.13;5034098;28;45805;-71
2023/07/12 08:48:00;;;;;;;;;1.00;1.00;;;;;22.86;49.47;101077.41;5037046;28;45418;-79
2023/07/12 08:50:31;;;;;;;;;1.25;1.00;;;;;22.97;49.84;101097.47;5031968;28;45603;-75
2023/07/12 08:52:57;;;;;;;;;1.50;1.50;;;;;22.98;49.58;101097.34;5009003;28;45798;-82
2023/07/12 08:55:24;;;;;;;;;1.00;1.00;;;;;23.02;49.46;101108.84;5018693;28;45443;-79
2023/07/12 08:58:12;;;;;;;;;1.25;1.25;;;;;22.90;49.15;101084.38;5036935;28;45459;-80
2023/07/12 09:00:38;;;;;;;;;1.25;1.00;;;;;22.98;49.24;101093.75;5029982;28;46826;-74
2023/07/12 09:03:03;;;;;;;;;3.00;1.00;;;;;23.10;48.94;101117.31;5037315;28;45544;-73
2023/07/12 09:05:32;;;;;;;;;1.00;1.00;;;;;23.00;48.88;101091.78;5030304;28;45855;-73
2023/07/12 09:08:40;;;;;;;;;2.00;1.00;;;;;23.16;48.75;101121.44;5032650;28;45313;-79
2023/07/12 09:11:14;;;;;;;;;1.75;1.75;;;;;23.00;48.36;101089.91;5010833;28;47745;-75
2023/07/12 09:13:40;;;;;;;;;0.25;0.25;;;;;23.17;48.04;101121.31;5019167;28;45569;-75
2023/07/12 09:16:27;;;;;;;;;1.00;1.00;;;;;23.22;47.82;101119.09;5019265;28;45480;-74
2023/07/12 09:18:55;;;;;;;;;1.00;1.00;;;;;23.23;47.89;101125.38;5029387;28;45700;-74
2023/07/12 09:21:27;;;;;;;;;0.50;0.50;;;;;23.27;47.85;101125.03;5016233;28;47806;-75
2023/07/12 09:23:58;;;;;;;;;1.00;1.00;;;;;23.00;47.67;101083.63;5035717;28;45420;-75
2023/07/12 09:26:26;;;;;;;;;0.50;0.00;;;;;23.23;47.94;101114.50;5032519;28;45408;-74
2023/07/12 09:29:05;;;;;;;;;0.00;0.00;;;;;23.05;47.87;101089.56;5018094;28;45648;-75
2023/07/12 09:31:37;;;;;;;;;0.75;0.00;;;;;23.20;48.29;101122.91;5013422;28;46431;-74
2023/07/12 09:34:13;;;;;;;;;0.25;0.25;;;;;23.27;47.61;101129.59;5013703;28;45329;-75
2023/07/12 09:36:39;;;;;;;;;1.00;1.00;;;;;23.29;47.13;101138.53;5031509;28;45431;-75
2023/07/12 09:39:08;;;;;;;;;0.75;0.75;;;;;23.18;46.73;101119.44;5014574;28;45399;-75
2023/07/12 09:41:34;;;;;;;;;1.00;1.00;;;;;23.14;46.53;101105.22;5005735;28;46102;-75
2023/07/12 09:44:00;;;;;;;;;2.00;0.00;;;;;23.17;46.52;101107.69;5025230;28;45361;-75
2023/07/12 09:46:28;;;;;;;;;0.25;0.25;;;;;23.39;46.87;101141.34;5012771;28;45381;-75
2023/07/12 09:49:04;;;;;;;;;1.25;1.25;;;;;23.21;46.20;101111.03;5017648;28;45521;-73
2023/07/12 09:51:55;;;;;;;;;1.00;1.00;;;;;23.41;45.49;101147.56;5014637;28;45550;-74
2023/07/12 09:54:21;;;;;;;;;3.25;3.25;;;;;23.43;45.37;101140.13;5020676;28;46374;-74
2023/07/12 09:56:56;;;;;;;;;2.00;2.00;;;;;23.23;45.51;101107.19;5013886;28;45761;-74
2023/07/12 09:59:43;;;;;;;;;15.25;15.25;;;;;23.47;45.33;101141.59;5031521;28;45504;-75
2023/07/12 10:02:15;;;;;;;;;2.25;2.00;;;;;23.46;45.00;101139.88;5007745;28;45519;-76
2023/07/12 10:04:48;;;;;;;;;0.75;0.75;;;;;23.35;44.67;101115.34;5010597;28;45522;-72
2023/07/12 10:07:26;;;;;;;;;1.75;0.00;;;;;23.46;44.93;101134.44;5014947;28;45588;-73
2023/07/12 10:09:54;;;;;;;;;2.00;1.00;;;;;23.43;45.04;101119.19;5013136;28;47094;-76
2023/07/12 10:12:30;;;;;;;;;3.00;1.50;;;;;23.62;45.30;101131.31;5008323;28;45538;-74
2023/07/12 10:14:56;;;;;;;;;1.00;1.00;;;;;23.58;44.74;101122.53;5008907;28;45533;-74
2023/07/12 10:17:34;;;;;;;;;2.00;2.00;;;;;23.51;45.32;101104.97;5017066;28;45367;-74
2023/07/12 10:20:01;;;;;;;;;1.00;1.00;;;;;23.60;45.03;101139.63;5032509;28;45450;-74
2023/07/12 10:22:35;;;;;;;;;1.75;1.75;;;;;23.69;44.89;101138.03;5032548;28;47483;-74
2023/07/12 10:25:10;;;;;;;;;1.00;1.00;;;;;23.59;44.92;101116.09;5016936;28;45588;-72
2023/07/12 10:27:45;;;;;;;;;0.00;0.00;;;;;23.68;44.21;101123.50;5034377;28;45386;-70
2023/07/12 10:30:18;;;;;;;;;1.00;1.00;;;;;23.75;43.88;101125.75;5035981;28;45325;-73
2023/07/12 10:32:48;;;;;;;;;1.00;1.00;;;;;23.72;43.63;101115.94;5037217;28;45412;-73
2023/07/12 10:35:36;;;;;;;;;2.75;1.00;;;;;23.81;43.92;101123.38;5033480;28;46752;-73
2023/07/12 10:38:08;;;;;;;;;2.00;0.00;;;;;23.71;43.71;101105.19;5019215;28;45337;-73
2023/07/12 10:40:40;;;;;;;;;1.00;1.00;;;;;23.79;43.60;101113.56;5025346;28;45388;-73
2023/07/12 10:43:24;;;;;;;;;1.50;1.50;;;;;23.66;43.46;101084.63;5034017;28;47094;-73
2023/07/12 10:45:53;;;;;;;;;0.75;0.75;;;;;23.86;43.27;101115.72;5015595;28;45334;-73
2023/07/12 10:48:24;;;;;;;;;1.00;1.00;;;;;23.97;43.96;101116.69;5037151;28;46016;-73
2023/07/12 10:50:54;;;;;;;;;1.00;1.00;;;;;23.86;43.80;101093.06;5018968;28;45701;-73
2023/07/12 10:53:27;;;;;;;;;2.00;1.00;;;;;24.03;43.37;101118.91;5036364;28;46065;-72
2023/07/12 10:56:08;;;;;;;;;1.00;1.00;;;;;24.05;42.91;101128.66;5036927;28;45391;-72
2023/07/12 10:58:51;;;;;;;;;1.00;1.00;;;;;24.08;43.09;101123.97;5038094;28;45397;-72
2023/07/12 11:01:43;;;;;;;;;2.00;1.00;;;;;24.10;43.05;101116.53;5040833;28;45313;-72
2023/07/12 11:04:08;;;;;;;;;1.25;1.00;;;;;24.11;42.88;101119.13;5021729;28;46473;-72
2023/07/12 11:06:34;;;;;;;;;2.00;2.00;;;;;24.09;42.42;101117.50;5037845;28;45471;-71
2023/07/12 11:08:59;;;;;;;;;0.00;0.00;;;;;24.14;42.24;101118.88;5040713;28;45511;-72
2023/07/12 11:11:29;;;;;;;;;0.50;0.50;;;;;24.14;42.28;101112.53;5021560;28;45751;-72
2023/07/12 11:14:10;;;;;;;;;1.50;1.25;;;;;24.11;41.90;101113.69;5041387;28;46007;-73
2023/07/12 11:16:44;;;;;;;;;0.00;0.00;;;;;23.95;41.54;101083.22;5032286;28;45533;-70
2023/07/12 11:19:32;;;;;;;;;1.00;1.00;;;;;24.02;41.50;101084.44;5039062;28;45469;-70
2023/07/12 11:22:03;;;;;;;;;0.75;0.75;;;;;24.17;41.59;101105.00;5021272;28;46349;-71
2023/07/12 11:24:37;;;;;;;;;0.00;0.00;;;;;24.07;41.33;101076.75;5033377;28;45637;-71
2023/07/12 11:27:23;;;;;;;;;1.00;1.00;;;;;24.23;42.18;101089.97;5025802;28;45656;-71
2023/07/12 11:29:54;;;;;;;;;3.00;1.00;;;;;24.29;41.88;101096.75;5031136;28;45877;-70
2023/07/12 11:32:33;;;;;;;;;1.50;1.50;;;;;24.21;41.19;101091.97;5032673;28;45769;-70
2023/07/12 11:35:09;;;;;;;;;1.00;1.00;;;;;24.24;41.27;101097.16;5040192;28;45557;-70
2023/07/12 11:37:40;;;;;;;;;1.25;1.00;;;;;24.31;41.39;101109.28;5033767;28;45475;-70
2023/07/12 11:40:21;;;;;;;;;0.00;0.00;;;;;24.22;41.65;101082.75;5035258;28;45482;-70
2023/07/12 11:42:46;;;;;;;;;3.25;1.25;;;;;24.18;41.51;101073.13;5038690;28;45493;-70
2023/07/12 11:45:15;;;;;;;;;0.00;0.00;;;;;24.20;41.44;101069.25;5040533;28;45316;-70
2023/07/12 11:47:46;;;;;;;;;0.75;0.75;;;;;24.34;41.27;101092.66;5039490;28;45928;-70
2023/07/12 11:50:22;;;;;;;;;1.00;1.00;;;;;24.35;41.35;101080.72;5039986;28;45388;-70
2023/07/12 11:52:50;;;;;;;;;1.00;1.00;;;;;24.45;40.97;101090.84;5039480;28;45274;-70
2023/07/12 11:55:20;;;;;;;;;1.00;1.00;;;;;24.30;41.68;101058.41;5022721;28;47127;-70
2023/07/12 11:57:47;;;;;;;;;4.00;1.00;;;;;24.49;41.25;101085.00;5039952;28;45702;-71
2023/07/12 12:00:26;;;;;;;;;0.75;0.75;;;;;24.53;41.14;101093.78;5039601;28;45323;-71
2023/07/12 12:02:57;;;;;;;;;1.75;1.00;;;;;24.50;41.30;101086.72;5034049;28;45267;-71
2023/07/12 12:05:31;;;;;;;;;1.00;1.00;;;;;24.48;41.01;101076.97;5011486;28;45480;-71